sensor_id;sensor_type;location;lat;lon;timestamp;temperature;humidity
41953;DHT22;63613;28.200;112.870;2023-12-20T00:02:17;7.30;74.80
41953;DHT22;63613;28.200;112.870;2023-12-20T00:04:47;7.30;74.80
41953;DHT22;63613;28.200;112.870;2023-12-20T00:07:16;7.30;74.60
41953;DHT22;63613;28.200;112.870;2023-12-20T00:09:46;7.20;74.80
41953;DHT22;63613;28.200;112.870;2023-12-20T00:12:15;7.30;74.80
41953;DHT22;63613;28.200;112.870;2023-12-20T00:14:44;7.30;74.80
41953;DHT22;63613;28.200;112.870;2023-12-20T00:17:15;7.30;74.80
41953;DHT22;63613;28.200;112.870;2023-12-20T00:19:44;7.30;74.70
41953;DHT22;63613;28.200;112.870;2023-12-20T00:22:13;7.30;74.60
41953;DHT22;63613;28.200;112.870;2023-12-20T00:24:42;7.30;74.90
41953;DHT22;63613;28.200;112.870;2023-12-20T00:27:11;7.40;74.90
41953;DHT22;63613;28.200;112.870;2023-12-20T00:29:41;7.30;74.80
41953;DHT22;63613;28.200;112.870;2023-12-20T00:32:14;7.40;74.70
41953;DHT22;63613;28.200;112.870;2023-12-20T00:34:43;7.40;74.50
41953;DHT22;63613;28.200;112.870;2023-12-20T00:37:12;7.30;74.60
41953;DHT22;63613;28.200;112.870;2023-12-20T00:39:42;7.40;74.70
41953;DHT22;63613;28.200;112.870;2023-12-20T00:42:11;7.40;74.30
41953;DHT22;63613;28.200;112.870;2023-12-20T00:44:40;7.40;74.10
41953;DHT22;63613;28.200;112.870;2023-12-20T00:47:10;7.30;74.30
41953;DHT22;63613;28.200;112.870;2023-12-20T00:49:39;7.40;74.10
41953;DHT22;63613;28.200;112.870;2023-12-20T00:52:09;7.40;74.20
41953;DHT22;63613;28.200;112.870;2023-12-20T00:54:38;7.40;74.40
41953;DHT22;63613;28.200;112.870;2023-12-20T00:57:08;7.40;74.50
41953;DHT22;63613;28.200;112.870;2023-12-20T00:59:37;7.40;74.90
41953;DHT22;63613;28.200;112.870;2023-12-20T01:02:25;7.40;74.50
41953;DHT22;63613;28.200;112.870;2023-12-20T01:04:54;7.40;74.60
41953;DHT22;63613;28.200;112.870;2023-12-20T01:07:23;7.40;75.00
41953;DHT22;63613;28.200;112.870;2023-12-20T01:09:53;7.40;75.80
41953;DHT22;63613;28.200;112.870;2023-12-20T01:12:23;7.40;75.40
41953;DHT22;63613;28.200;112.870;2023-12-20T01:14:54;7.40;74.80
41953;DHT22;63613;28.200;112.870;2023-12-20T01:17:23;7.40;75.30
41953;DHT22;63613;28.200;112.870;2023-12-20T01:19:52;7.40;75.50
41953;DHT22;63613;28.200;112.870;2023-12-20T01:22:21;7.40;75.80
41953;DHT22;63613;28.200;112.870;2023-12-20T01:24:50;7.40;75.90
41953;DHT22;63613;28.200;112.870;2023-12-20T01:27:20;7.50;75.40
41953;DHT22;63613;28.200;112.870;2023-12-20T01:29:49;7.40;75.20
41953;DHT22;63613;28.200;112.870;2023-12-20T01:32:18;7.40;75.30
41953;DHT22;63613;28.200;112.870;2023-12-20T01:34:47;7.40;75.20
41953;DHT22;63613;28.200;112.870;2023-12-20T01:37:17;7.50;75.80
41953;DHT22;63613;28.200;112.870;2023-12-20T01:39:48;7.40;75.60
41953;DHT22;63613;28.200;112.870;2023-12-20T01:43:06;7.40;75.40
41953;DHT22;63613;28.200;112.870;2023-12-20T01:45:36;7.40;75.60
41953;DHT22;63613;28.200;112.870;2023-12-20T01:48:06;7.50;75.20
41953;DHT22;63613;28.200;112.870;2023-12-20T01:50:38;7.50;75.70
41953;DHT22;63613;28.200;112.870;2023-12-20T01:53:08;7.70;75.00
41953;DHT22;63613;28.200;112.870;2023-12-20T01:55:40;7.80;74.70
41953;DHT22;63613;28.200;112.870;2023-12-20T01:58:10;7.80;74.70
41953;DHT22;63613;28.200;112.870;2023-12-20T02:00:42;7.90;74.90
41953;DHT22;63613;28.200;112.870;2023-12-20T02:03:11;7.90;75.00
41953;DHT22;63613;28.200;112.870;2023-12-20T02:05:41;7.80;75.20
41953;DHT22;63613;28.200;112.870;2023-12-20T02:08:11;7.80;75.70
41953;DHT22;63613;28.200;112.870;2023-12-20T02:10:44;7.80;75.70
41953;DHT22;63613;28.200;112.870;2023-12-20T02:13:13;7.80;75.80
41953;DHT22;63613;28.200;112.870;2023-12-20T02:15:42;7.80;75.80
41953;DHT22;63613;28.200;112.870;2023-12-20T02:18:12;7.80;75.50
41953;DHT22;63613;28.200;112.870;2023-12-20T02:20:45;7.80;75.70
41953;DHT22;63613;28.200;112.870;2023-12-20T02:23:15;7.90;75.90
41953;DHT22;63613;28.200;112.870;2023-12-20T02:25:44;7.90;76.10
41953;DHT22;63613;28.200;112.870;2023-12-20T02:28:13;7.90;76.40
41953;DHT22;63613;28.200;112.870;2023-12-20T02:30:42;8.00;76.40
41953;DHT22;63613;28.200;112.870;2023-12-20T02:33:13;8.00;76.30
41953;DHT22;63613;28.200;112.870;2023-12-20T02:35:43;8.00;76.30
41953;DHT22;63613;28.200;112.870;2023-12-20T02:38:12;8.00;76.30
41953;DHT22;63613;28.200;112.870;2023-12-20T02:40:41;8.00;76.30
41953;DHT22;63613;28.200;112.870;2023-12-20T02:43:10;8.00;76.30
41953;DHT22;63613;28.200;112.870;2023-12-20T02:45:41;8.10;76.00
41953;DHT22;63613;28.200;112.870;2023-12-20T02:48:10;8.10;76.00
41953;DHT22;63613;28.200;112.870;2023-12-20T02:50:39;8.10;75.90
41953;DHT22;63613;28.200;112.870;2023-12-20T02:53:09;8.20;75.60
41953;DHT22;63613;28.200;112.870;2023-12-20T02:55:39;8.20;75.90
41953;DHT22;63613;28.200;112.870;2023-12-20T02:58:08;8.20;76.40
41953;DHT22;63613;28.200;112.870;2023-12-20T03:00:38;8.20;76.10
41953;DHT22;63613;28.200;112.870;2023-12-20T03:03:08;8.20;76.10
41953;DHT22;63613;28.200;112.870;2023-12-20T03:05:37;8.20;76.10
41953;DHT22;63613;28.200;112.870;2023-12-20T03:08:06;8.30;76.20
41953;DHT22;63613;28.200;112.870;2023-12-20T03:10:36;8.30;75.90
41953;DHT22;63613;28.200;112.870;2023-12-20T03:13:05;8.30;75.70
41953;DHT22;63613;28.200;112.870;2023-12-20T03:15:35;8.30;75.80
41953;DHT22;63613;28.200;112.870;2023-12-20T03:18:05;8.30;76.00
41953;DHT22;63613;28.200;112.870;2023-12-20T03:20:34;8.40;76.00
41953;DHT22;63613;28.200;112.870;2023-12-20T03:23:05;8.40;75.70
41953;DHT22;63613;28.200;112.870;2023-12-20T03:25:38;8.40;75.70
41953;DHT22;63613;28.200;112.870;2023-12-20T03:28:07;8.40;75.60
41953;DHT22;63613;28.200;112.870;2023-12-20T03:30:57;8.40;75.30
41953;DHT22;63613;28.200;112.870;2023-12-20T03:33:26;8.40;75.40
41953;DHT22;63613;28.200;112.870;2023-12-20T03:35:58;8.40;75.40
41953;DHT22;63613;28.200;112.870;2023-12-20T03:38:27;8.40;75.40
41953;DHT22;63613;28.200;112.870;2023-12-20T03:41:17;8.40;75.30
41953;DHT22;63613;28.200;112.870;2023-12-20T03:43:48;8.40;75.60
41953;DHT22;63613;28.200;112.870;2023-12-20T03:46:17;8.40;75.70
41953;DHT22;63613;28.200;112.870;2023-12-20T03:48:46;8.40;76.00
41953;DHT22;63613;28.200;112.870;2023-12-20T03:51:15;8.40;75.90
41953;DHT22;63613;28.200;112.870;2023-12-20T03:53:45;8.40;75.60
41953;DHT22;63613;28.200;112.870;2023-12-20T03:56:14;8.40;75.20
41953;DHT22;63613;28.200;112.870;2023-12-20T03:58:44;8.40;74.70
41953;DHT22;63613;28.200;112.870;2023-12-20T04:01:13;8.40;75.30
41953;DHT22;63613;28.200;112.870;2023-12-20T04:03:42;8.40;75.50
41953;DHT22;63613;28.200;112.870;2023-12-20T04:06:18;8.40;75.90
41953;DHT22;63613;28.200;112.870;2023-12-20T04:09:08;8.40;75.50
41953;DHT22;63613;28.200;112.870;2023-12-20T04:11:38;8.40;75.60
41953;DHT22;63613;28.200;112.870;2023-12-20T04:14:07;8.40;75.70
41953;DHT22;63613;28.200;112.870;2023-12-20T04:16:58;8.40;75.30
41953;DHT22;63613;28.200;112.870;2023-12-20T04:19:29;8.40;74.80
41953;DHT22;63613;28.200;112.870;2023-12-20T04:21:58;8.40;74.80
41953;DHT22;63613;28.200;112.870;2023-12-20T04:24:49;8.40;75.10
41953;DHT22;63613;28.200;112.870;2023-12-20T04:27:21;8.40;75.40
41953;DHT22;63613;28.200;112.870;2023-12-20T04:29:51;8.40;75.20
41953;DHT22;63613;28.200;112.870;2023-12-20T04:32:21;8.40;75.10
41953;DHT22;63613;28.200;112.870;2023-12-20T04:34:50;8.40;75.40
41953;DHT22;63613;28.200;112.870;2023-12-20T04:37:19;8.40;75.10
41953;DHT22;63613;28.200;112.870;2023-12-20T04:39:48;8.40;75.20
41953;DHT22;63613;28.200;112.870;2023-12-20T04:42:56;8.40;75.20
41953;DHT22;63613;28.200;112.870;2023-12-20T04:45:25;8.50;73.20
41953;DHT22;63613;28.200;112.870;2023-12-20T04:47:55;8.60;71.30
41953;DHT22;63613;28.200;112.870;2023-12-20T04:50:24;8.70;70.40
41953;DHT22;63613;28.200;112.870;2023-12-20T04:52:54;8.80;70.50
41953;DHT22;63613;28.200;112.870;2023-12-20T04:55:23;8.90;70.70
41953;DHT22;63613;28.200;112.870;2023-12-20T04:57:53;8.90;70.80
41953;DHT22;63613;28.200;112.870;2023-12-20T05:00:22;8.90;70.30
41953;DHT22;63613;28.200;112.870;2023-12-20T05:02:51;8.90;69.90
41953;DHT22;63613;28.200;112.870;2023-12-20T05:05:23;9.00;69.70
41953;DHT22;63613;28.200;112.870;2023-12-20T05:07:52;9.00;69.50
41953;DHT22;63613;28.200;112.870;2023-12-20T05:10:21;9.00;69.40
41953;DHT22;63613;28.200;112.870;2023-12-20T05:12:50;9.10;69.30
41953;DHT22;63613;28.200;112.870;2023-12-20T05:15:19;9.10;69.10
41953;DHT22;63613;28.200;112.870;2023-12-20T05:17:50;9.10;69.20
41953;DHT22;63613;28.200;112.870;2023-12-20T05:20:19;9.10;69.30
41953;DHT22;63613;28.200;112.870;2023-12-20T05:22:49;9.10;69.10
41953;DHT22;63613;28.200;112.870;2023-12-20T05:25:19;9.20;68.90
41953;DHT22;63613;28.200;112.870;2023-12-20T05:27:48;9.10;68.40
41953;DHT22;63613;28.200;112.870;2023-12-20T05:30:19;9.00;67.90
41953;DHT22;63613;28.200;112.870;2023-12-20T05:32:49;9.00;68.20
41953;DHT22;63613;28.200;112.870;2023-12-20T05:35:19;9.00;68.80
41953;DHT22;63613;28.200;112.870;2023-12-20T05:37:51;9.00;69.20
41953;DHT22;63613;28.200;112.870;2023-12-20T05:40:22;9.00;70.30
41953;DHT22;63613;28.200;112.870;2023-12-20T05:42:51;9.00;70.60
41953;DHT22;63613;28.200;112.870;2023-12-20T05:45:21;9.00;70.40
41953;DHT22;63613;28.200;112.870;2023-12-20T05:48:08;9.00;70.00
41953;DHT22;63613;28.200;112.870;2023-12-20T05:50:39;9.00;70.80
41953;DHT22;63613;28.200;112.870;2023-12-20T05:53:09;8.90;71.30
41953;DHT22;63613;28.200;112.870;2023-12-20T05:55:38;8.90;71.60
41953;DHT22;63613;28.200;112.870;2023-12-20T05:58:07;8.90;72.20
41953;DHT22;63613;28.200;112.870;2023-12-20T06:00:36;8.90;72.80
41953;DHT22;63613;28.200;112.870;2023-12-20T06:03:06;8.90;73.40
41953;DHT22;63613;28.200;112.870;2023-12-20T06:05:35;8.90;73.50
41953;DHT22;63613;28.200;112.870;2023-12-20T06:08:06;8.90;73.80
41953;DHT22;63613;28.200;112.870;2023-12-20T06:10:35;9.00;74.10
41953;DHT22;63613;28.200;112.870;2023-12-20T06:13:04;9.00;74.00
41953;DHT22;63613;28.200;112.870;2023-12-20T06:15:35;8.90;74.50
41953;DHT22;63613;28.200;112.870;2023-12-20T06:18:04;9.00;74.40
41953;DHT22;63613;28.200;112.870;2023-12-20T06:20:34;8.90;74.10
41953;DHT22;63613;28.200;112.870;2023-12-20T06:23:03;8.90;74.30
41953;DHT22;63613;28.200;112.870;2023-12-20T06:25:32;8.90;73.90
41953;DHT22;63613;28.200;112.870;2023-12-20T06:28:03;8.90;73.80
41953;DHT22;63613;28.200;112.870;2023-12-20T06:30:32;8.90;73.70
41953;DHT22;63613;28.200;112.870;2023-12-20T06:33:01;8.90;73.80
41953;DHT22;63613;28.200;112.870;2023-12-20T06:35:30;8.90;73.50
41953;DHT22;63613;28.200;112.870;2023-12-20T06:38:00;8.90;73.50
41953;DHT22;63613;28.200;112.870;2023-12-20T06:40:30;8.90;72.80
41953;DHT22;63613;28.200;112.870;2023-12-20T06:43:00;8.90;72.80
41953;DHT22;63613;28.200;112.870;2023-12-20T06:45:29;8.90;72.80
41953;DHT22;63613;28.200;112.870;2023-12-20T06:47:58;8.90;72.80
41953;DHT22;63613;28.200;112.870;2023-12-20T06:50:27;8.90;73.20
41953;DHT22;63613;28.200;112.870;2023-12-20T06:52:58;8.90;73.50
41953;DHT22;63613;28.200;112.870;2023-12-20T06:55:27;8.80;73.30
41953;DHT22;63613;28.200;112.870;2023-12-20T06:57:58;8.80;73.20
41953;DHT22;63613;28.200;112.870;2023-12-20T07:00:27;8.80;73.20
41953;DHT22;63613;28.200;112.870;2023-12-20T07:02:59;8.80;73.30
41953;DHT22;63613;28.200;112.870;2023-12-20T07:05:29;8.70;73.10
41953;DHT22;63613;28.200;112.870;2023-12-20T07:07:58;8.80;73.30
41953;DHT22;63613;28.200;112.870;2023-12-20T07:11:05;8.70;73.20
41953;DHT22;63613;28.200;112.870;2023-12-20T07:13:35;8.80;73.10
41953;DHT22;63613;28.200;112.870;2023-12-20T07:16:04;8.70;73.10
41953;DHT22;63613;28.200;112.870;2023-12-20T07:18:34;8.60;73.40
41953;DHT22;63613;28.200;112.870;2023-12-20T07:21:03;8.70;73.90
41953;DHT22;63613;28.200;112.870;2023-12-20T07:23:33;8.70;73.90
41953;DHT22;63613;28.200;112.870;2023-12-20T07:26:03;8.60;73.90
41953;DHT22;63613;28.200;112.870;2023-12-20T07:28:32;8.60;73.90
41953;DHT22;63613;28.200;112.870;2023-12-20T07:31:01;8.60;73.90
41953;DHT22;63613;28.200;112.870;2023-12-20T07:33:30;8.60;73.80
41953;DHT22;63613;28.200;112.870;2023-12-20T07:36:00;8.60;73.50
41953;DHT22;63613;28.200;112.870;2023-12-20T07:38:30;8.60;73.30
41953;DHT22;63613;28.200;112.870;2023-12-20T07:40:59;8.60;73.60
41953;DHT22;63613;28.200;112.870;2023-12-20T07:43:29;8.60;73.50
41953;DHT22;63613;28.200;112.870;2023-12-20T07:46:03;8.60;73.40
41953;DHT22;63613;28.200;112.870;2023-12-20T07:48:34;8.50;73.40
41953;DHT22;63613;28.200;112.870;2023-12-20T07:51:04;8.50;73.00
41953;DHT22;63613;28.200;112.870;2023-12-20T07:53:36;8.50;72.90
41953;DHT22;63613;28.200;112.870;2023-12-20T07:56:15;8.50;73.10
41953;DHT22;63613;28.200;112.870;2023-12-20T07:58:46;8.50;73.40
41953;DHT22;63613;28.200;112.870;2023-12-20T08:01:17;8.40;73.60
41953;DHT22;63613;28.200;112.870;2023-12-20T08:03:48;8.40;73.60
41953;DHT22;63613;28.200;112.870;2023-12-20T08:06:17;8.40;73.70
41953;DHT22;63613;28.200;112.870;2023-12-20T08:09:07;8.40;73.80
41953;DHT22;63613;28.200;112.870;2023-12-20T08:11:36;8.40;73.80
41953;DHT22;63613;28.200;112.870;2023-12-20T08:14:05;8.40;73.80
41953;DHT22;63613;28.200;112.870;2023-12-20T08:16:34;8.40;73.80
41953;DHT22;63613;28.200;112.870;2023-12-20T08:19:03;8.40;73.70
41953;DHT22;63613;28.200;112.870;2023-12-20T08:21:33;8.40;73.50
41953;DHT22;63613;28.200;112.870;2023-12-20T08:24:02;8.40;73.40
41953;DHT22;63613;28.200;112.870;2023-12-20T08:26:32;8.40;73.30
41953;DHT22;63613;28.200;112.870;2023-12-20T08:29:01;8.40;73.30
41953;DHT22;63613;28.200;112.870;2023-12-20T08:31:30;8.40;73.50
41953;DHT22;63613;28.200;112.870;2023-12-20T08:34:01;8.40;73.40
41953;DHT22;63613;28.200;112.870;2023-12-20T08:36:30;8.40;73.20
41953;DHT22;63613;28.200;112.870;2023-12-20T08:38:59;8.40;73.40
41953;DHT22;63613;28.200;112.870;2023-12-20T08:41:29;8.40;73.20
41953;DHT22;63613;28.200;112.870;2023-12-20T08:43:58;8.40;73.20
41953;DHT22;63613;28.200;112.870;2023-12-20T08:46:28;8.40;73.50
41953;DHT22;63613;28.200;112.870;2023-12-20T08:48:57;8.40;73.40
41953;DHT22;63613;28.200;112.870;2023-12-20T08:51:45;8.40;73.20
41953;DHT22;63613;28.200;112.870;2023-12-20T08:54:14;8.40;72.80
41953;DHT22;63613;28.200;112.870;2023-12-20T08:56:46;8.40;72.70
41953;DHT22;63613;28.200;112.870;2023-12-20T08:59:15;8.40;72.60
41953;DHT22;63613;28.200;112.870;2023-12-20T09:01:48;8.40;72.80
41953;DHT22;63613;28.200;112.870;2023-12-20T09:04:22;8.40;73.00
41953;DHT22;63613;28.200;112.870;2023-12-20T09:06:54;8.40;72.70
41953;DHT22;63613;28.200;112.870;2023-12-20T09:09:23;8.40;72.60
41953;DHT22;63613;28.200;112.870;2023-12-20T09:11:52;8.30;72.90
41953;DHT22;63613;28.200;112.870;2023-12-20T09:14:21;8.30;73.00
41953;DHT22;63613;28.200;112.870;2023-12-20T09:16:50;8.30;73.00
41953;DHT22;63613;28.200;112.870;2023-12-20T09:19:22;8.40;72.80
41953;DHT22;63613;28.200;112.870;2023-12-20T09:21:51;8.30;72.60
41953;DHT22;63613;28.200;112.870;2023-12-20T09:24:20;8.30;72.90
41953;DHT22;63613;28.200;112.870;2023-12-20T09:26:49;8.30;72.80
41953;DHT22;63613;28.200;112.870;2023-12-20T09:29:19;8.30;72.80
41953;DHT22;63613;28.200;112.870;2023-12-20T09:31:51;8.30;72.70
41953;DHT22;63613;28.200;112.870;2023-12-20T09:34:21;8.30;72.70
41953;DHT22;63613;28.200;112.870;2023-12-20T09:36:50;8.30;72.90
41953;DHT22;63613;28.200;112.870;2023-12-20T09:39:20;8.30;73.00
41953;DHT22;63613;28.200;112.870;2023-12-20T09:42:03;8.30;73.20
41953;DHT22;63613;28.200;112.870;2023-12-20T09:44:33;8.30;73.20
41953;DHT22;63613;28.200;112.870;2023-12-20T09:47:08;8.30;73.40
41953;DHT22;63613;28.200;112.870;2023-12-20T09:49:38;8.30;73.50
41953;DHT22;63613;28.200;112.870;2023-12-20T09:52:09;8.20;73.80
41953;DHT22;63613;28.200;112.870;2023-12-20T09:54:38;8.20;73.90
41953;DHT22;63613;28.200;112.870;2023-12-20T09:57:09;8.20;73.70
41953;DHT22;63613;28.200;112.870;2023-12-20T09:59:38;8.30;73.60
41953;DHT22;63613;28.200;112.870;2023-12-20T10:02:12;8.20;73.40
41953;DHT22;63613;28.200;112.870;2023-12-20T10:04:47;8.20;73.60
41953;DHT22;63613;28.200;112.870;2023-12-20T10:07:36;8.20;74.40
41953;DHT22;63613;28.200;112.870;2023-12-20T10:10:06;8.40;73.90
41953;DHT22;63613;28.200;112.870;2023-12-20T10:12:38;8.40;73.60
41953;DHT22;63613;28.200;112.870;2023-12-20T10:15:07;8.50;73.40
41953;DHT22;63613;28.200;112.870;2023-12-20T10:17:38;8.50;73.40
41953;DHT22;63613;28.200;112.870;2023-12-20T10:20:07;8.50;73.60
41953;DHT22;63613;28.200;112.870;2023-12-20T10:22:39;8.40;73.60
41953;DHT22;63613;28.200;112.870;2023-12-20T10:25:09;8.40;73.50
41953;DHT22;63613;28.200;112.870;2023-12-20T10:27:40;8.40;73.80
41953;DHT22;63613;28.200;112.870;2023-12-20T10:30:09;8.30;73.60
41953;DHT22;63613;28.200;112.870;2023-12-20T10:32:38;8.30;73.60
41953;DHT22;63613;28.200;112.870;2023-12-20T10:35:46;8.30;73.80
41953;DHT22;63613;28.200;112.870;2023-12-20T10:38:17;8.30;73.70
41953;DHT22;63613;28.200;112.870;2023-12-20T10:40:47;8.30;73.80
41953;DHT22;63613;28.200;112.870;2023-12-20T10:43:17;8.20;73.70
41953;DHT22;63613;28.200;112.870;2023-12-20T10:45:47;8.30;73.40
41953;DHT22;63613;28.200;112.870;2023-12-20T10:48:36;8.20;73.40
41953;DHT22;63613;28.200;112.870;2023-12-20T10:51:06;8.20;73.50
41953;DHT22;63613;28.200;112.870;2023-12-20T10:53:37;8.20;73.30
41953;DHT22;63613;28.200;112.870;2023-12-20T10:56:09;8.20;73.30
41953;DHT22;63613;28.200;112.870;2023-12-20T10:58:41;8.20;73.20
41953;DHT22;63613;28.200;112.870;2023-12-20T11:01:14;8.20;73.10
41953;DHT22;63613;28.200;112.870;2023-12-20T11:03:50;8.20;73.10
41953;DHT22;63613;28.200;112.870;2023-12-20T11:06:47;8.20;73.10
41953;DHT22;63613;28.200;112.870;2023-12-20T11:09:24;8.20;73.00
41953;DHT22;63613;28.200;112.870;2023-12-20T11:12:20;8.20;72.80
41953;DHT22;63613;28.200;112.870;2023-12-20T11:14:54;8.20;72.80
41953;DHT22;63613;28.200;112.870;2023-12-20T11:17:28;8.10;72.60
41953;DHT22;63613;28.200;112.870;2023-12-20T11:20:06;8.20;72.90
41953;DHT22;63613;28.200;112.870;2023-12-20T11:22:38;8.20;72.80
41953;DHT22;63613;28.200;112.870;2023-12-20T11:25:11;8.20;72.70
41953;DHT22;63613;28.200;112.870;2023-12-20T11:27:43;8.20;72.70
41953;DHT22;63613;28.200;112.870;2023-12-20T11:30:13;8.20;72.40
41953;DHT22;63613;28.200;112.870;2023-12-20T11:32:49;8.20;72.30
41953;DHT22;63613;28.200;112.870;2023-12-20T11:35:19;8.20;72.20
41953;DHT22;63613;28.200;112.870;2023-12-20T11:37:50;8.20;72.10
41953;DHT22;63613;28.200;112.870;2023-12-20T11:40:20;8.20;71.80
41953;DHT22;63613;28.200;112.870;2023-12-20T11:42:51;8.20;71.50
41953;DHT22;63613;28.200;112.870;2023-12-20T11:45:27;8.20;71.20
41953;DHT22;63613;28.200;112.870;2023-12-20T11:48:16;8.10;71.40
41953;DHT22;63613;28.200;112.870;2023-12-20T11:50:48;8.10;71.80
41953;DHT22;63613;28.200;112.870;2023-12-20T11:53:55;8.20;72.10
41953;DHT22;63613;28.200;112.870;2023-12-20T11:56:24;8.10;72.00
41953;DHT22;63613;28.200;112.870;2023-12-20T11:58:55;8.10;72.20
41953;DHT22;63613;28.200;112.870;2023-12-20T12:01:26;8.10;72.10
41953;DHT22;63613;28.200;112.870;2023-12-20T12:04:06;8.10;72.10
41953;DHT22;63613;28.200;112.870;2023-12-20T12:06:36;8.10;71.80
41953;DHT22;63613;28.200;112.870;2023-12-20T12:09:06;8.10;71.90
41953;DHT22;63613;28.200;112.870;2023-12-20T12:11:36;8.10;71.60
41953;DHT22;63613;28.200;112.870;2023-12-20T12:14:06;8.10;71.90
41953;DHT22;63613;28.200;112.870;2023-12-20T12:16:37;8.10;72.10
41953;DHT22;63613;28.200;112.870;2023-12-20T12:19:29;8.10;72.30
41953;DHT22;63613;28.200;112.870;2023-12-20T12:22:18;8.10;72.60
41953;DHT22;63613;28.200;112.870;2023-12-20T12:24:48;8.00;72.80
41953;DHT22;63613;28.200;112.870;2023-12-20T12:27:17;8.00;72.80
41953;DHT22;63613;28.200;112.870;2023-12-20T12:30:08;8.00;72.60
41953;DHT22;63613;28.200;112.870;2023-12-20T12:32:42;8.00;72.80
41953;DHT22;63613;28.200;112.870;2023-12-20T12:35:11;8.00;72.90
41953;DHT22;63613;28.200;112.870;2023-12-20T12:37:41;8.00;73.10
41953;DHT22;63613;28.200;112.870;2023-12-20T12:40:13;8.00;73.30
41953;DHT22;63613;28.200;112.870;2023-12-20T12:42:46;7.90;73.40
41953;DHT22;63613;28.200;112.870;2023-12-20T12:45:19;8.00;73.30
41953;DHT22;63613;28.200;112.870;2023-12-20T12:47:48;7.90;73.20
41953;DHT22;63613;28.200;112.870;2023-12-20T12:50:55;8.00;73.20
41953;DHT22;63613;28.200;112.870;2023-12-20T12:53:32;8.00;73.30
41953;DHT22;63613;28.200;112.870;2023-12-20T12:56:01;7.90;73.40
41953;DHT22;63613;28.200;112.870;2023-12-20T12:58:49;8.00;73.40
41953;DHT22;63613;28.200;112.870;2023-12-20T13:01:18;8.00;73.30
41953;DHT22;63613;28.200;112.870;2023-12-20T13:03:50;8.00;73.20
41953;DHT22;63613;28.200;112.870;2023-12-20T13:06:20;8.00;73.00
41953;DHT22;63613;28.200;112.870;2023-12-20T13:08:52;8.00;72.70
41953;DHT22;63613;28.200;112.870;2023-12-20T13:11:33;8.00;72.60
41953;DHT22;63613;28.200;112.870;2023-12-20T13:14:04;7.90;72.50
41953;DHT22;63613;28.200;112.870;2023-12-20T13:16:35;8.00;72.50
41953;DHT22;63613;28.200;112.870;2023-12-20T13:19:05;8.00;72.50
41953;DHT22;63613;28.200;112.870;2023-12-20T13:21:37;8.00;72.80
41953;DHT22;63613;28.200;112.870;2023-12-20T13:24:08;8.00;72.80
41953;DHT22;63613;28.200;112.870;2023-12-20T13:26:40;8.00;72.80
41953;DHT22;63613;28.200;112.870;2023-12-20T13:29:09;8.00;72.70
41953;DHT22;63613;28.200;112.870;2023-12-20T13:31:38;8.00;72.50
41953;DHT22;63613;28.200;112.870;2023-12-20T13:34:10;8.00;72.40
41953;DHT22;63613;28.200;112.870;2023-12-20T13:36:41;8.00;72.50
41953;DHT22;63613;28.200;112.870;2023-12-20T13:39:10;8.00;72.50
41953;DHT22;63613;28.200;112.870;2023-12-20T13:41:40;7.90;72.70
41953;DHT22;63613;28.200;112.870;2023-12-20T13:44:14;7.90;72.60
41953;DHT22;63613;28.200;112.870;2023-12-20T13:46:44;7.90;72.70
41953;DHT22;63613;28.200;112.870;2023-12-20T13:49:14;7.90;72.70
41953;DHT22;63613;28.200;112.870;2023-12-20T13:51:43;8.00;72.40
41953;DHT22;63613;28.200;112.870;2023-12-20T13:54:12;7.90;72.60
41953;DHT22;63613;28.200;112.870;2023-12-20T13:56:41;7.90;72.60
41953;DHT22;63613;28.200;112.870;2023-12-20T13:59:12;7.90;72.20
41953;DHT22;63613;28.200;112.870;2023-12-20T14:01:42;7.90;72.10
41953;DHT22;63613;28.200;112.870;2023-12-20T14:04:12;7.90;72.40
41953;DHT22;63613;28.200;112.870;2023-12-20T14:06:41;8.00;72.00
41953;DHT22;63613;28.200;112.870;2023-12-20T14:09:11;8.10;71.60
41953;DHT22;63613;28.200;112.870;2023-12-20T14:11:42;8.20;71.20
41953;DHT22;63613;28.200;112.870;2023-12-20T14:14:11;8.10;71.20
41953;DHT22;63613;28.200;112.870;2023-12-20T14:16:41;8.10;70.80
41953;DHT22;63613;28.200;112.870;2023-12-20T14:19:13;8.10;70.90
41953;DHT22;63613;28.200;112.870;2023-12-20T14:21:42;8.10;71.10
41953;DHT22;63613;28.200;112.870;2023-12-20T14:24:14;8.10;71.40
41953;DHT22;63613;28.200;112.870;2023-12-20T14:26:43;8.10;70.80
41953;DHT22;63613;28.200;112.870;2023-12-20T14:29:12;8.10;70.30
41953;DHT22;63613;28.200;112.870;2023-12-20T14:31:42;8.20;69.70
41953;DHT22;63613;28.200;112.870;2023-12-20T14:34:11;8.20;68.90
41953;DHT22;63613;28.200;112.870;2023-12-20T14:36:40;8.10;68.70
41953;DHT22;63613;28.200;112.870;2023-12-20T14:39:10;8.00;69.20
41953;DHT22;63613;28.200;112.870;2023-12-20T14:41:41;7.90;69.40
41953;DHT22;63613;28.200;112.870;2023-12-20T14:44:13;7.90;69.00
41953;DHT22;63613;28.200;112.870;2023-12-20T14:46:42;7.90;69.30
41953;DHT22;63613;28.200;112.870;2023-12-20T14:49:12;7.90;69.70
41953;DHT22;63613;28.200;112.870;2023-12-20T14:51:44;7.90;70.10
41953;DHT22;63613;28.200;112.870;2023-12-20T14:54:16;7.90;70.40
41953;DHT22;63613;28.200;112.870;2023-12-20T14:56:46;7.90;70.60
41953;DHT22;63613;28.200;112.870;2023-12-20T14:59:16;7.90;70.80
41953;DHT22;63613;28.200;112.870;2023-12-20T15:01:46;7.90;70.40
41953;DHT22;63613;28.200;112.870;2023-12-20T15:04:15;7.90;70.10
41953;DHT22;63613;28.200;112.870;2023-12-20T15:06:45;7.90;69.80
41953;DHT22;63613;28.200;112.870;2023-12-20T15:09:15;7.90;69.60
41953;DHT22;63613;28.200;112.870;2023-12-20T15:11:45;7.90;69.60
41953;DHT22;63613;28.200;112.870;2023-12-20T15:14:15;7.80;69.50
41953;DHT22;63613;28.200;112.870;2023-12-20T15:16:48;7.80;69.90
41953;DHT22;63613;28.200;112.870;2023-12-20T15:19:17;7.90;70.20
41953;DHT22;63613;28.200;112.870;2023-12-20T15:21:48;7.90;70.30
41953;DHT22;63613;28.200;112.870;2023-12-20T15:24:18;7.90;70.50
41953;DHT22;63613;28.200;112.870;2023-12-20T15:26:55;7.90;70.60
41953;DHT22;63613;28.200;112.870;2023-12-20T15:29:27;7.90;70.80
41953;DHT22;63613;28.200;112.870;2023-12-20T15:31:56;7.90;71.00
41953;DHT22;63613;28.200;112.870;2023-12-20T15:34:25;7.90;71.20
41953;DHT22;63613;28.200;112.870;2023-12-20T15:36:56;7.90;71.10
41953;DHT22;63613;28.200;112.870;2023-12-20T15:39:26;7.90;71.00
41953;DHT22;63613;28.200;112.870;2023-12-20T15:41:55;7.90;71.10
41953;DHT22;63613;28.200;112.870;2023-12-20T15:44:24;7.90;71.10